N222HL KIND-KORL
Flight info
| Callsign | N222HL |
|---|---|
| Flight time | N/A |
| Altitude | 39000 |
| Route | DAWNN1 DAWNN MJKAL JAFAR3 |
| Aircraft | CL60/M-SBDE1E2E3FGHIJ1J4J5J7M3RWXYZ/LB1V1D1 |
Departure
| Time | 2026-05-04 23:45 |
|---|---|
| Airport | Indianapolis International Airport (KIND) |
Arrival
| Time | N/A |
|---|---|
| Airport | Orlando Executive Airport (KORL) |
| Time | Latitude | Longitude | Altitude | Speed | Heading |
|---|---|---|---|---|---|
| 2026-05-04 23:01 | 39.72604 | -86.27287 | 787 ft | 0 kts | 224° |
| 2026-05-04 23:37 | 39.72573 | -86.27277 | 787 ft | 8 kts | 148° |
| 2026-05-04 23:37 | 39.72498 | -86.27222 | 786 ft | 16 kts | 170° |
| 2026-05-04 23:37 | 39.72389 | -86.27206 | 786 ft | 14 kts | 142° |
| 2026-05-04 23:37 | 39.72304 | -86.27232 | 786 ft | 14 kts | 224° |
| 2026-05-04 23:38 | 39.72232 | -86.27328 | 786 ft | 15 kts | 225° |
| 2026-05-04 23:38 | 39.72155 | -86.27427 | 787 ft | 15 kts | 224° |
| 2026-05-04 23:38 | 39.72074 | -86.27528 | 786 ft | 17 kts | 225° |
| 2026-05-04 23:38 | 39.71984 | -86.27644 | 785 ft | 18 kts | 224° |
| 2026-05-04 23:39 | 39.71889 | -86.27763 | 786 ft | 17 kts | 226° |
| 2026-05-04 23:39 | 39.71882 | -86.27846 | 786 ft | 4 kts | 311° |
| 2026-05-04 23:39 | 39.71892 | -86.27859 | 786 ft | 1 kts | 313° |
| 2026-05-04 23:39 | 39.71908 | -86.27880 | 786 ft | 5 kts | 315° |
| 2026-05-04 23:40 | 39.71949 | -86.27952 | 787 ft | 11 kts | 282° |
| 2026-05-04 23:40 | 39.71899 | -86.28050 | 788 ft | 27 kts | 225° |
| 2026-05-04 23:40 | 39.71574 | -86.28465 | 788 ft | 96 kts | 226° |
| 2026-05-04 23:40 | 39.71234 | -86.28902 | 790 ft | 31 kts | 224° |
| 2026-05-04 23:41 | 39.71162 | -86.28938 | 791 ft | 8 kts | 158° |
| 2026-05-04 23:41 | 39.71120 | -86.28893 | 791 ft | 2 kts | 136° |
| 2026-05-04 23:41 | 39.71118 | -86.28890 | 791 ft | 0 kts | 136° |
| 2026-05-04 23:42 | 39.71117 | -86.28845 | 791 ft | 13 kts | 48° |
| 2026-05-04 23:42 | 39.71196 | -86.28750 | 791 ft | 17 kts | 45° |
| 2026-05-04 23:42 | 39.71296 | -86.28620 | 789 ft | 22 kts | 45° |
| 2026-05-04 23:43 | 39.71418 | -86.28464 | 788 ft | 26 kts | 45° |
| 2026-05-04 23:43 | 39.71550 | -86.28296 | 787 ft | 27 kts | 45° |
| 2026-05-04 23:43 | 39.71652 | -86.28070 | 786 ft | 29 kts | 52° |
| 2026-05-04 23:43 | 39.71791 | -86.27889 | 786 ft | 24 kts | 45° |
| 2026-05-04 23:44 | 39.71878 | -86.27834 | 786 ft | 10 kts | 319° |
| 2026-05-04 23:44 | 39.71930 | -86.27910 | 787 ft | 11 kts | 311° |
| 2026-05-04 23:44 | 39.71919 | -86.28030 | 788 ft | 20 kts | 225° |
| 2026-05-04 23:44 | 39.71632 | -86.28391 | 788 ft | 105 kts | 225° |
| 2026-05-04 23:45 | 39.70935 | -86.29285 | 992 ft | 164 kts | 225° |
| 2026-05-04 23:45 | 39.70194 | -86.30396 | 2015 ft | 172 kts | 237° |
| 2026-05-04 23:45 | 39.69783 | -86.31993 | 2809 ft | 211 kts | 257° |
| 2026-05-04 23:45 | 39.69372 | -86.33825 | 3915 ft | 223 kts | 246° |
| 2026-05-04 23:46 | 39.68729 | -86.35661 | 5042 ft | 232 kts | 241° |
| 2026-05-04 23:46 | 39.67936 | -86.37475 | 6365 ft | 238 kts | 235° |
| 2026-05-04 23:46 | 39.66743 | -86.38911 | 7605 ft | 248 kts | 215° |
| 2026-05-04 23:46 | 39.65055 | -86.39586 | 8745 ft | 271 kts | 188° |
| 2026-05-04 23:47 | 39.63120 | -86.39264 | 9545 ft | 294 kts | 175° |
| 2026-05-04 23:47 | 39.61106 | -86.38688 | 9928 ft | 301 kts | 175° |
| 2026-05-04 23:47 | 39.59002 | -86.38092 | 10817 ft | 315 kts | 174° |
| 2026-05-04 23:47 | 39.56900 | -86.37492 | 12260 ft | 310 kts | 174° |
| 2026-05-04 23:48 | 39.54813 | -86.36901 | 13482 ft | 312 kts | 174° |
| 2026-05-04 23:48 | 39.52669 | -86.36299 | 14588 ft | 317 kts | 174° |
| 2026-05-04 23:48 | 39.50495 | -86.35691 | 15635 ft | 323 kts | 174° |
| 2026-05-04 23:48 | 39.48316 | -86.35084 | 16606 ft | 329 kts | 174° |
| 2026-05-04 23:49 | 39.46075 | -86.34460 | 17583 ft | 334 kts | 173° |
| 2026-05-04 23:49 | 39.43778 | -86.33823 | 18531 ft | 339 kts | 173° |
| 2026-05-04 23:49 | 39.41466 | -86.33182 | 19440 ft | 344 kts | 174° |
| 2026-05-04 23:49 | 39.39125 | -86.32536 | 20324 ft | 347 kts | 174° |
| 2026-05-04 23:50 | 39.36745 | -86.31879 | 21227 ft | 350 kts | 174° |
| 2026-05-04 23:50 | 39.34329 | -86.31417 | 22065 ft | 350 kts | 181° |
| 2026-05-04 23:50 | 39.31926 | -86.31149 | 22843 ft | 354 kts | 181° |
| 2026-05-04 23:50 | 39.29460 | -86.30875 | 23658 ft | 358 kts | 181° |
| 2026-05-04 23:51 | 39.26955 | -86.30597 | 24444 ft | 362 kts | 181° |
| 2026-05-04 23:51 | 39.24440 | -86.30318 | 25161 ft | 367 kts | 181° |
| 2026-05-04 23:51 | 39.21886 | -86.30034 | 25882 ft | 371 kts | 181° |
| 2026-05-04 23:51 | 39.19285 | -86.29745 | 26585 ft | 374 kts | 181° |
| 2026-05-04 23:52 | 39.16675 | -86.29455 | 27213 ft | 379 kts | 182° |
| 2026-05-04 23:52 | 39.13999 | -86.29157 | 27825 ft | 383 kts | 182° |
| 2026-05-04 23:52 | 39.11282 | -86.28856 | 28427 ft | 387 kts | 182° |
| 2026-05-04 23:52 | 39.08547 | -86.28553 | 29013 ft | 390 kts | 182° |
| 2026-05-04 23:53 | 39.05783 | -86.28247 | 29545 ft | 395 kts | 182° |
| 2026-05-04 23:53 | 39.02989 | -86.27937 | 30076 ft | 399 kts | 182° |
| 2026-05-04 23:53 | 39.00158 | -86.27625 | 30539 ft | 403 kts | 182° |
| 2026-05-04 23:53 | 38.97308 | -86.27309 | 30991 ft | 407 kts | 182° |
| 2026-05-04 23:54 | 38.94465 | -86.26995 | 31398 ft | 412 kts | 182° |
| 2026-05-04 23:54 | 38.91557 | -86.26674 | 31847 ft | 414 kts | 181° |
| 2026-05-04 23:54 | 38.88610 | -86.26347 | 32258 ft | 417 kts | 181° |
| 2026-05-04 23:54 | 38.85725 | -86.26029 | 32655 ft | 420 kts | 181° |
| 2026-05-04 23:55 | 38.82811 | -86.25707 | 33035 ft | 422 kts | 181° |
| 2026-05-04 23:55 | 38.79859 | -86.25382 | 33404 ft | 424 kts | 180° |
| 2026-05-04 23:55 | 38.73915 | -86.24727 | 34187 ft | 426 kts | 180° |
| 2026-05-04 23:56 | 38.70919 | -86.24396 | 34586 ft | 426 kts | 180° |
| 2026-05-04 23:56 | 38.67979 | -86.24072 | 34959 ft | 425 kts | 180° |
| 2026-05-04 23:56 | 38.65023 | -86.23747 | 35331 ft | 425 kts | 180° |
| 2026-05-04 23:56 | 38.62084 | -86.23424 | 35691 ft | 424 kts | 180° |
| 2026-05-04 23:57 | 38.59145 | -86.23093 | 36031 ft | 424 kts | 179° |
| 2026-05-04 23:57 | 38.56202 | -86.22459 | 36362 ft | 428 kts | 171° |
| 2026-05-04 23:57 | 38.53330 | -86.21319 | 36728 ft | 432 kts | 165° |
| 2026-05-04 23:57 | 38.50507 | -86.20048 | 37111 ft | 432 kts | 165° |
| 2026-05-04 23:58 | 38.47655 | -86.18771 | 37476 ft | 431 kts | 165° |
| 2026-05-04 23:58 | 38.44813 | -86.17500 | 37902 ft | 430 kts | 165° |
| 2026-05-04 23:58 | 38.42012 | -86.16251 | 38258 ft | 429 kts | 165° |
| 2026-05-04 23:58 | 38.39174 | -86.14986 | 38560 ft | 429 kts | 165° |
| 2026-05-04 23:59 | 38.36341 | -86.13725 | 38817 ft | 430 kts | 166° |
| 2026-05-04 23:59 | 38.30601 | -86.11180 | 38821 ft | 442 kts | 165° |
| 2026-05-05 00:00 | 38.24717 | -86.08575 | 38820 ft | 453 kts | 165° |
| 2026-05-05 00:00 | 38.18672 | -86.05904 | 38834 ft | 463 kts | 165° |
| 2026-05-05 00:01 | 38.12505 | -86.03182 | 38835 ft | 472 kts | 165° |
| 2026-05-05 00:01 | 38.06252 | -86.00428 | 38840 ft | 479 kts | 165° |
| 2026-05-05 00:02 | 37.99893 | -85.97633 | 38839 ft | 485 kts | 165° |
| 2026-05-05 00:02 | 37.93468 | -85.94813 | 38832 ft | 492 kts | 165° |
| 2026-05-05 00:03 | 37.86932 | -85.91951 | 38868 ft | 496 kts | 165° |
| 2026-05-05 00:03 | 37.80349 | -85.89074 | 38863 ft | 502 kts | 165° |
| 2026-05-05 00:04 | 37.73705 | -85.86175 | 38854 ft | 505 kts | 165° |
| 2026-05-05 00:04 | 37.67071 | -85.83285 | 38855 ft | 507 kts | 165° |
| 2026-05-05 00:05 | 37.60323 | -85.80352 | 38858 ft | 506 kts | 165° |
| 2026-05-05 00:05 | 37.52539 | -85.76977 | 38878 ft | 508 kts | 165° |
| 2026-05-05 00:06 | 37.46939 | -85.74552 | 38874 ft | 507 kts | 165° |
| 2026-05-05 00:06 | 37.40199 | -85.71641 | 38875 ft | 508 kts | 165° |
| 2026-05-05 00:07 | 37.33448 | -85.68729 | 38907 ft | 510 kts | 165° |
| 2026-05-05 00:07 | 37.26733 | -85.65839 | 38901 ft | 510 kts | 165° |
| 2026-05-05 00:08 | 37.19965 | -85.62932 | 38892 ft | 511 kts | 165° |
| 2026-05-05 00:08 | 37.13224 | -85.60042 | 38887 ft | 511 kts | 165° |
| 2026-05-05 00:09 | 37.06520 | -85.57173 | 38937 ft | 511 kts | 165° |
| 2026-05-05 00:09 | 36.99733 | -85.54274 | 38926 ft | 512 kts | 165° |
| 2026-05-05 00:10 | 36.92981 | -85.51395 | 38907 ft | 512 kts | 165° |
| 2026-05-05 00:10 | 36.86229 | -85.48523 | 38909 ft | 513 kts | 165° |
| 2026-05-05 00:11 | 36.79435 | -85.45637 | 38921 ft | 512 kts | 165° |
| 2026-05-05 00:11 | 36.72660 | -85.42765 | 38900 ft | 514 kts | 165° |
| 2026-05-05 00:12 | 36.65910 | -85.39909 | 38917 ft | 513 kts | 166° |
| 2026-05-05 00:12 | 36.59134 | -85.37047 | 38928 ft | 514 kts | 165° |
| 2026-05-05 00:13 | 36.52345 | -85.34185 | 38924 ft | 514 kts | 166° |
| 2026-05-05 00:13 | 36.45565 | -85.31332 | 38923 ft | 515 kts | 166° |
| 2026-05-05 00:14 | 36.38804 | -85.28491 | 38932 ft | 515 kts | 166° |
| 2026-05-05 00:14 | 36.32027 | -85.25650 | 38956 ft | 515 kts | 166° |
| 2026-05-05 00:15 | 36.25187 | -85.22787 | 38948 ft | 515 kts | 166° |
| 2026-05-05 00:15 | 36.18403 | -85.19954 | 38945 ft | 516 kts | 166° |
| 2026-05-05 00:16 | 36.11585 | -85.17111 | 38970 ft | 516 kts | 166° |
| 2026-05-05 00:16 | 36.04764 | -85.14272 | 38988 ft | 517 kts | 166° |
| 2026-05-05 00:17 | 35.97981 | -85.11454 | 39044 ft | 517 kts | 166° |
| 2026-05-05 00:17 | 35.91163 | -85.08627 | 39014 ft | 518 kts | 166° |
| 2026-05-05 00:18 | 35.84317 | -85.05793 | 39000 ft | 518 kts | 166° |
| 2026-05-05 00:18 | 35.77450 | -85.02956 | 38973 ft | 518 kts | 166° |
| 2026-05-05 00:19 | 35.70615 | -85.00136 | 38979 ft | 518 kts | 166° |
| 2026-05-05 00:19 | 35.63784 | -84.97324 | 38977 ft | 518 kts | 166° |
| 2026-05-05 00:20 | 35.56913 | -84.94501 | 38968 ft | 519 kts | 167° |
| 2026-05-05 00:20 | 35.50093 | -84.91702 | 38968 ft | 519 kts | 167° |
| 2026-05-05 00:21 | 35.43223 | -84.88889 | 38980 ft | 519 kts | 167° |
| 2026-05-05 00:21 | 35.36304 | -84.86061 | 38968 ft | 519 kts | 167° |
| 2026-05-05 00:22 | 35.29429 | -84.83256 | 38998 ft | 520 kts | 166° |
| 2026-05-05 00:22 | 35.22523 | -84.80444 | 38988 ft | 521 kts | 166° |
| 2026-05-05 00:23 | 35.15636 | -84.77643 | 38989 ft | 521 kts | 166° |
| 2026-05-05 00:23 | 35.08710 | -84.74832 | 38983 ft | 521 kts | 167° |
| 2026-05-05 00:24 | 35.01837 | -84.72048 | 38975 ft | 522 kts | 166° |
| 2026-05-05 00:24 | 34.94929 | -84.69254 | 38978 ft | 522 kts | 166° |
| 2026-05-05 00:25 | 34.87921 | -84.66425 | 39013 ft | 523 kts | 166° |
| 2026-05-05 00:25 | 34.81006 | -84.63639 | 39011 ft | 525 kts | 167° |
| 2026-05-05 00:26 | 34.74083 | -84.60854 | 39007 ft | 525 kts | 166° |
| 2026-05-05 00:26 | 34.67102 | -84.58051 | 39005 ft | 526 kts | 166° |
| 2026-05-05 00:27 | 34.60175 | -84.55273 | 39002 ft | 526 kts | 167° |
| 2026-05-05 00:27 | 34.53225 | -84.52492 | 39004 ft | 526 kts | 167° |
| 2026-05-05 00:28 | 34.46242 | -84.49702 | 39018 ft | 527 kts | 167° |
| 2026-05-05 00:28 | 34.39189 | -84.46890 | 39018 ft | 528 kts | 166° |
| 2026-05-05 00:29 | 34.32230 | -84.44119 | 39041 ft | 528 kts | 167° |
| 2026-05-05 00:29 | 34.25236 | -84.41340 | 39038 ft | 529 kts | 167° |
| 2026-05-05 00:30 | 34.18244 | -84.38567 | 39022 ft | 529 kts | 167° |
| 2026-05-05 00:30 | 34.11225 | -84.35787 | 39027 ft | 530 kts | 167° |
| 2026-05-05 00:31 | 34.04186 | -84.33004 | 39035 ft | 530 kts | 167° |
| 2026-05-05 00:31 | 33.97175 | -84.30238 | 39035 ft | 530 kts | 167° |
| 2026-05-05 00:32 | 33.90110 | -84.27455 | 39025 ft | 532 kts | 167° |
| 2026-05-05 00:32 | 33.83071 | -84.24687 | 39025 ft | 532 kts | 167° |
| 2026-05-05 00:33 | 33.76030 | -84.21923 | 39030 ft | 532 kts | 168° |
| 2026-05-05 00:33 | 33.68930 | -84.19141 | 39033 ft | 534 kts | 168° |
| 2026-05-05 00:34 | 33.61838 | -84.16367 | 39036 ft | 535 kts | 168° |
| 2026-05-05 00:34 | 33.54699 | -84.13580 | 39023 ft | 535 kts | 168° |
| 2026-05-05 00:35 | 33.47640 | -84.10828 | 39028 ft | 537 kts | 168° |
| 2026-05-05 00:35 | 33.40472 | -84.08038 | 39026 ft | 538 kts | 168° |
| 2026-05-05 00:36 | 33.33304 | -84.05253 | 39006 ft | 537 kts | 168° |
| 2026-05-05 00:36 | 33.26215 | -84.02503 | 39021 ft | 538 kts | 168° |
| 2026-05-05 00:37 | 33.19090 | -83.99745 | 39023 ft | 539 kts | 168° |
| 2026-05-05 00:37 | 33.11956 | -83.96987 | 39024 ft | 538 kts | 168° |
| 2026-05-05 00:38 | 33.04817 | -83.94233 | 39019 ft | 540 kts | 168° |
| 2026-05-05 00:38 | 32.97624 | -83.91462 | 39026 ft | 539 kts | 168° |
| 2026-05-05 00:39 | 32.90490 | -83.88718 | 39020 ft | 540 kts | 168° |
| 2026-05-05 00:39 | 32.83363 | -83.85982 | 39029 ft | 540 kts | 168° |
| 2026-05-05 00:40 | 32.76170 | -83.83225 | 39042 ft | 541 kts | 169° |
| 2026-05-05 00:40 | 32.68972 | -83.80472 | 39036 ft | 542 kts | 168° |
| 2026-05-05 00:41 | 32.61811 | -83.77737 | 39040 ft | 542 kts | 168° |
| 2026-05-05 00:41 | 32.54602 | -83.74987 | 39048 ft | 541 kts | 169° |
| 2026-05-05 00:42 | 32.47398 | -83.72246 | 39033 ft | 543 kts | 169° |
| 2026-05-05 00:42 | 32.40193 | -83.69507 | 39032 ft | 543 kts | 168° |
| 2026-05-05 00:43 | 32.33002 | -83.66779 | 39034 ft | 543 kts | 168° |
| 2026-05-05 00:43 | 32.25806 | -83.64053 | 39032 ft | 544 kts | 169° |
| 2026-05-05 00:44 | 32.18572 | -83.61317 | 39047 ft | 543 kts | 169° |
| 2026-05-05 00:44 | 32.11347 | -83.58589 | 39048 ft | 543 kts | 169° |
| 2026-05-05 00:45 | 32.04112 | -83.55863 | 39027 ft | 544 kts | 168° |
| 2026-05-05 00:45 | 31.96890 | -83.53146 | 39020 ft | 544 kts | 169° |
| 2026-05-05 00:46 | 31.88482 | -83.49988 | 39057 ft | 543 kts | 169° |
| 2026-05-05 00:46 | 31.82447 | -83.47726 | 39028 ft | 543 kts | 169° |
| 2026-05-05 00:47 | 31.75286 | -83.45044 | 39049 ft | 542 kts | 168° |
| 2026-05-05 00:47 | 31.68077 | -83.42349 | 39027 ft | 541 kts | 169° |
| 2026-05-05 00:48 | 31.60878 | -83.39664 | 39049 ft | 542 kts | 169° |
| 2026-05-05 00:48 | 31.53723 | -83.36997 | 39034 ft | 541 kts | 168° |
| 2026-05-05 00:49 | 31.46470 | -83.34300 | 39033 ft | 540 kts | 169° |
| 2026-05-05 00:49 | 31.39354 | -83.31651 | 39043 ft | 524 kts | 169° |
| 2026-05-05 00:50 | 31.32515 | -83.29109 | 39033 ft | 508 kts | 169° |
| 2026-05-05 00:50 | 31.25830 | -83.26635 | 39032 ft | 504 kts | 169° |
| 2026-05-05 00:51 | 31.19093 | -83.24148 | 39029 ft | 503 kts | 169° |
| 2026-05-05 00:51 | 31.12427 | -83.21690 | 39033 ft | 503 kts | 169° |
| 2026-05-05 00:52 | 31.05755 | -83.19233 | 39037 ft | 503 kts | 169° |
| 2026-05-05 00:52 | 30.99062 | -83.16771 | 39033 ft | 503 kts | 169° |
| 2026-05-05 00:53 | 30.92386 | -83.14318 | 39032 ft | 502 kts | 169° |
| 2026-05-05 00:53 | 30.85744 | -83.11876 | 39036 ft | 502 kts | 168° |
| 2026-05-05 00:54 | 30.79262 | -83.08524 | 39037 ft | 513 kts | 155° |
| 2026-05-05 00:54 | 30.73490 | -83.03578 | 39030 ft | 520 kts | 142° |
| 2026-05-05 00:55 | 30.68055 | -82.97955 | 39032 ft | 518 kts | 142° |
| 2026-05-05 00:55 | 30.62616 | -82.92347 | 39028 ft | 518 kts | 142° |
| 2026-05-05 00:56 | 30.57207 | -82.86781 | 39028 ft | 517 kts | 142° |
| 2026-05-05 00:56 | 30.51804 | -82.81233 | 39029 ft | 517 kts | 143° |
| 2026-05-05 00:57 | 30.46410 | -82.75703 | 39032 ft | 516 kts | 143° |
| 2026-05-05 00:57 | 30.41015 | -82.70181 | 39026 ft | 515 kts | 142° |
| 2026-05-05 00:58 | 30.35594 | -82.64643 | 39026 ft | 515 kts | 143° |
| 2026-05-05 00:58 | 30.30206 | -82.59149 | 39031 ft | 514 kts | 143° |
| 2026-05-05 00:59 | 30.24826 | -82.53672 | 39040 ft | 513 kts | 143° |
| 2026-05-05 00:59 | 30.19440 | -82.48196 | 39036 ft | 513 kts | 143° |
| 2026-05-05 01:00 | 30.13842 | -82.43088 | 38671 ft | 501 kts | 153° |
| 2026-05-05 01:00 | 30.10831 | -82.41116 | 38031 ft | 493 kts | 160° |
| 2026-05-05 01:00 | 30.07676 | -82.39574 | 37397 ft | 485 kts | 167° |
| 2026-05-05 01:00 | 30.04474 | -82.38477 | 36770 ft | 477 kts | 173° |
| 2026-05-05 01:01 | 30.01223 | -82.37571 | 36153 ft | 474 kts | 174° |
| 2026-05-05 01:01 | 29.98004 | -82.36676 | 35545 ft | 473 kts | 173° |
| 2026-05-05 01:01 | 29.94811 | -82.35789 | 34944 ft | 471 kts | 174° |
| 2026-05-05 01:01 | 29.91579 | -82.34892 | 34312 ft | 470 kts | 174° |
| 2026-05-05 01:02 | 29.88401 | -82.34011 | 33684 ft | 469 kts | 174° |
| 2026-05-05 01:02 | 29.85200 | -82.33124 | 33086 ft | 467 kts | 174° |
| 2026-05-05 01:02 | 29.82028 | -82.32248 | 32438 ft | 466 kts | 174° |
| 2026-05-05 01:02 | 29.78863 | -82.31373 | 31831 ft | 463 kts | 174° |
| 2026-05-05 01:03 | 29.75717 | -82.30543 | 31200 ft | 459 kts | 176° |
| 2026-05-05 01:03 | 29.72588 | -82.29771 | 30612 ft | 454 kts | 176° |
| 2026-05-05 01:03 | 29.69509 | -82.29012 | 30028 ft | 451 kts | 176° |
| 2026-05-05 01:03 | 29.66414 | -82.28250 | 29415 ft | 447 kts | 176° |
| 2026-05-05 01:04 | 29.63379 | -82.27502 | 28825 ft | 443 kts | 176° |
| 2026-05-05 01:04 | 29.57366 | -82.26024 | 27642 ft | 436 kts | 175° |
| 2026-05-05 01:04 | 29.54388 | -82.25292 | 27064 ft | 431 kts | 175° |
| 2026-05-05 01:05 | 29.51449 | -82.24571 | 26492 ft | 428 kts | 175° |
| 2026-05-05 01:05 | 29.48569 | -82.23863 | 25926 ft | 423 kts | 174° |
| 2026-05-05 01:05 | 29.45669 | -82.23152 | 25360 ft | 419 kts | 174° |
| 2026-05-05 01:05 | 29.42845 | -82.22460 | 24808 ft | 415 kts | 174° |
| 2026-05-05 01:06 | 29.40029 | -82.21770 | 24253 ft | 411 kts | 174° |
| 2026-05-05 01:06 | 29.37234 | -82.21083 | 24016 ft | 395 kts | 174° |
| 2026-05-05 01:06 | 29.34615 | -82.20438 | 23814 ft | 384 kts | 174° |
| 2026-05-05 01:06 | 29.32011 | -82.19801 | 23455 ft | 377 kts | 174° |
| 2026-05-05 01:07 | 29.29449 | -82.19154 | 23054 ft | 374 kts | 171° |
| 2026-05-05 01:07 | 29.26998 | -82.18162 | 22587 ft | 376 kts | 162° |
| 2026-05-05 01:07 | 29.24566 | -82.16988 | 22078 ft | 374 kts | 163° |
| 2026-05-05 01:07 | 29.22191 | -82.15847 | 21553 ft | 368 kts | 163° |
| 2026-05-05 01:08 | 29.19834 | -82.14718 | 20951 ft | 364 kts | 162° |
| 2026-05-05 01:08 | 29.17503 | -82.13603 | 20330 ft | 360 kts | 162° |
| 2026-05-05 01:08 | 29.15208 | -82.12506 | 19798 ft | 355 kts | 162° |
| 2026-05-05 01:08 | 29.12935 | -82.11421 | 19203 ft | 351 kts | 162° |
| 2026-05-05 01:09 | 29.10694 | -82.10353 | 18616 ft | 347 kts | 161° |
| 2026-05-05 01:09 | 29.08490 | -82.09304 | 18062 ft | 344 kts | 161° |
| 2026-05-05 01:09 | 29.06309 | -82.08266 | 17559 ft | 338 kts | 161° |
| 2026-05-05 01:09 | 29.04140 | -82.07236 | 16954 ft | 336 kts | 161° |
| 2026-05-05 01:10 | 29.01986 | -82.06213 | 16499 ft | 329 kts | 160° |
| 2026-05-05 01:10 | 28.99886 | -82.05211 | 16041 ft | 325 kts | 159° |
| 2026-05-05 01:10 | 28.97972 | -82.03829 | 15604 ft | 328 kts | 139° |
| 2026-05-05 01:10 | 28.96369 | -82.01975 | 15163 ft | 329 kts | 135° |
| 2026-05-05 01:11 | 28.94786 | -82.00096 | 14723 ft | 326 kts | 135° |
| 2026-05-05 01:11 | 28.93226 | -81.98255 | 14291 ft | 323 kts | 135° |
| 2026-05-05 01:11 | 28.91666 | -81.96416 | 13870 ft | 320 kts | 135° |
| 2026-05-05 01:11 | 28.90117 | -81.94591 | 13447 ft | 318 kts | 135° |
| 2026-05-05 01:12 | 28.88573 | -81.92776 | 13019 ft | 314 kts | 136° |
| 2026-05-05 01:12 | 28.86980 | -81.91077 | 12593 ft | 313 kts | 140° |
| 2026-05-05 01:12 | 28.85352 | -81.89432 | 12201 ft | 310 kts | 139° |
| 2026-05-05 01:12 | 28.83738 | -81.87798 | 11800 ft | 311 kts | 139° |
| 2026-05-05 01:13 | 28.82117 | -81.86159 | 11376 ft | 308 kts | 140° |
| 2026-05-05 01:13 | 28.80521 | -81.84545 | 11056 ft | 305 kts | 140° |
| 2026-05-05 01:13 | 28.78953 | -81.82935 | 10984 ft | 305 kts | 139° |
| 2026-05-05 01:13 | 28.77345 | -81.81351 | 10982 ft | 303 kts | 147° |
| 2026-05-05 01:14 | 28.75470 | -81.80428 | 10741 ft | 288 kts | 169° |
| 2026-05-05 01:14 | 28.73497 | -81.80006 | 10133 ft | 290 kts | 173° |
| 2026-05-05 01:14 | 28.71499 | -81.79618 | 9596 ft | 290 kts | 173° |
| 2026-05-05 01:14 | 28.69511 | -81.79236 | 9212 ft | 281 kts | 173° |
| 2026-05-05 01:15 | 28.67636 | -81.78901 | 9062 ft | 263 kts | 178° |
| 2026-05-05 01:15 | 28.65854 | -81.78724 | 8696 ft | 257 kts | 168° |
| 2026-05-05 01:15 | 28.65139 | -81.78453 | 8509 ft | 258 kts | 158° |